createdAt,value
2018-05-11T00:00:06.432Z,16.79
2018-05-11T00:01:06.429Z,16.67
2018-05-11T00:02:06.435Z,16.67
2018-05-11T00:03:06.710Z,16.73
2018-05-11T00:04:06.166Z,16.68
2018-05-11T00:05:06.175Z,16.68
2018-05-11T00:06:06.423Z,16.71
2018-05-11T00:07:06.696Z,16.81
2018-05-11T00:08:06.655Z,16.89
2018-05-11T00:09:06.415Z,16.81
2018-05-11T00:10:06.443Z,16.79
2018-05-11T00:11:06.684Z,16.76
2018-05-11T00:12:06.634Z,16.82
2018-05-11T00:13:06.408Z,16.83
2018-05-11T00:14:06.388Z,16.83
2018-05-11T00:15:06.141Z,16.91
2018-05-11T00:16:06.613Z,16.88
2018-05-11T00:17:06.640Z,16.88
2018-05-11T00:18:06.381Z,16.83
2018-05-11T00:19:06.607Z,16.86
2018-05-11T00:20:06.603Z,16.76
2018-05-11T00:21:06.368Z,16.82
2018-05-11T00:22:06.352Z,16.86
2018-05-11T00:23:06.360Z,16.82
2018-05-11T00:24:06.328Z,16.81
2018-05-11T00:25:06.363Z,16.81
2018-05-11T00:26:06.323Z,16.81
2018-05-11T00:27:06.602Z,16.81
2018-05-11T00:28:06.309Z,16.76
2018-05-11T00:29:06.335Z,16.89
2018-05-11T00:30:06.588Z,16.75
2018-05-11T00:31:06.302Z,16.78
2018-05-11T00:32:06.063Z,16.75
2018-05-11T00:33:06.056Z,16.76
2018-05-11T00:34:06.301Z,16.71
2018-05-11T00:35:06.300Z,16.75
2018-05-11T00:36:06.300Z,16.68
2018-05-11T00:37:06.037Z,16.7
2018-05-11T00:38:06.286Z,16.68
2018-05-11T00:39:06.294Z,16.66
2018-05-11T00:40:06.518Z,16.66
2018-05-11T00:41:06.536Z,16.66
2018-05-11T00:42:06.249Z,16.7
2018-05-11T00:43:06.531Z,16.7
2018-05-11T00:44:05.987Z,16.68
2018-05-11T00:45:06.266Z,16.67
2018-05-11T00:46:06.503Z,16.6
2018-05-11T00:47:06.341Z,16.64
2018-05-11T00:48:06.223Z,16.61
2018-05-11T00:49:06.233Z,16.57
2018-05-11T00:50:06.232Z,16.57
2018-05-11T00:51:06.718Z,16.61
2018-05-11T00:52:06.236Z,16.57
2018-05-11T00:53:06.211Z,16.64
2018-05-11T00:54:06.218Z,16.5
2018-05-11T00:55:06.481Z,16.5
2018-05-11T00:56:06.188Z,16.53
2018-05-11T00:57:06.467Z,16.49
2018-05-11T00:58:06.439Z,16.5
2018-05-11T00:59:06.203Z,16.48
2018-05-11T01:00:06.435Z,16.52
2018-05-11T01:01:06.463Z,16.52
2018-05-11T01:02:06.177Z,16.52
2018-05-11T01:03:06.190Z,16.58
2018-05-11T01:04:06.412Z,16.41
2018-05-11T01:05:06.170Z,16.35
2018-05-11T01:06:06.162Z,16.41
2018-05-11T01:07:06.428Z,16.38
2018-05-11T01:08:06.427Z,16.35
2018-05-11T01:09:06.141Z,16.33
2018-05-11T01:10:06.153Z,16.34
2018-05-11T01:11:06.382Z,16.33
2018-05-11T01:12:06.413Z,16.24
2018-05-11T01:13:06.120Z,16.23
2018-05-11T01:14:06.425Z,16.3
2018-05-11T01:15:06.359Z,16.33
2018-05-11T01:16:06.415Z,16.27
2018-05-11T01:17:06.654Z,16.28
2018-05-11T01:18:06.116Z,16.33
2018-05-11T01:19:06.086Z,16.2
2018-05-11T01:20:06.375Z,16.33
2018-05-11T01:21:06.082Z,16.24
2018-05-11T01:22:06.091Z,16.33
2018-05-11T01:23:06.360Z,16.24
2018-05-11T01:24:06.354Z,16.35
2018-05-11T01:25:06.321Z,16.31
2018-05-11T01:26:06.325Z,16.25
2018-05-11T01:27:06.049Z,16.21
2018-05-11T01:28:06.076Z,16.25
2018-05-11T01:29:06.046Z,16.25
2018-05-11T01:30:06.084Z,16.28
2018-05-11T01:31:06.290Z,16.23
2018-05-11T01:32:05.798Z,16.17
2018-05-11T01:33:06.034Z,16.17
2018-05-11T01:34:06.298Z,16.08
2018-05-11T01:35:06.274Z,16.12
2018-05-11T01:36:06.039Z,16.15
2018-05-11T01:37:06.293Z,16.08
2018-05-11T01:38:06.024Z,16.05
2018-05-11T01:39:05.995Z,16.09
2018-05-11T01:40:05.741Z,16.07
2018-05-11T01:41:06.268Z,16.09
2018-05-11T01:42:06.255Z,16.09
2018-05-11T01:43:06.007Z,16.17
2018-05-11T01:44:05.976Z,16.14
2018-05-11T01:45:05.993Z,16.08
2018-05-11T01:46:06.237Z,16.05
2018-05-11T01:47:06.232Z,16.02
2018-05-11T01:48:06.243Z,16.07
2018-05-11T01:49:05.954Z,16.08
2018-05-11T01:50:05.971Z,16.05
2018-05-11T01:51:06.192Z,16.02
2018-05-11T01:52:05.965Z,16.11
2018-05-11T01:53:05.974Z,15.94
2018-05-11T01:54:06.199Z,15.94
2018-05-11T01:55:06.176Z,16.02
2018-05-11T01:56:05.919Z,16.09
2018-05-11T01:57:05.682Z,16.02
2018-05-11T01:58:06.183Z,15.97
2018-05-11T01:59:05.651Z,16
2018-05-11T02:00:05.668Z,15.96
2018-05-11T02:01:06.150Z,16
2018-05-11T02:02:05.658Z,16.09
2018-05-11T02:03:06.139Z,16
2018-05-11T02:04:06.168Z,16.07
2018-05-11T02:05:06.131Z,16.05
2018-05-11T02:06:06.145Z,16
2018-05-11T02:07:05.864Z,15.97
2018-05-11T02:08:05.888Z,16.02
2018-05-11T02:09:05.883Z,15.96
2018-05-11T02:10:06.125Z,16
2018-05-11T02:11:06.102Z,16
2018-05-11T02:12:06.126Z,16.05
2018-05-11T02:13:06.095Z,16.05
2018-05-11T02:14:05.588Z,16.05
2018-05-11T02:15:05.827Z,16.07
2018-05-11T02:16:06.110Z,16.02
2018-05-11T02:17:05.820Z,16.01
2018-05-11T02:18:06.101Z,16.08
2018-05-11T02:19:06.069Z,15.93
2018-05-11T02:20:06.091Z,16.01
2018-05-11T02:21:06.049Z,15.96
2018-05-11T02:22:06.067Z,16.01
2018-05-11T02:23:06.040Z,16.05
2018-05-11T02:24:06.070Z,16.05
2018-05-11T02:25:06.063Z,16
2018-05-11T02:26:06.263Z,16.04
2018-05-11T02:27:05.769Z,15.96
2018-05-11T02:28:05.763Z,15.96
2018-05-11T02:29:05.789Z,15.87
2018-05-11T02:30:05.518Z,15.94
2018-05-11T02:31:06.039Z,15.92
2018-05-11T02:32:05.997Z,15.83
2018-05-11T02:33:06.032Z,15.8
2018-05-11T02:34:06.005Z,15.82
2018-05-11T02:35:06.034Z,15.8
2018-05-11T02:36:05.727Z,15.84
2018-05-11T02:37:06.028Z,15.87
2018-05-11T02:38:05.994Z,15.74
2018-05-11T02:39:05.978Z,15.74
2018-05-11T02:40:06.001Z,15.78
2018-05-11T02:41:05.983Z,15.8
2018-05-11T02:42:05.972Z,15.75
2018-05-11T02:43:05.960Z,15.72
2018-05-11T02:44:05.939Z,15.75
2018-05-11T02:45:05.972Z,15.75
2018-05-11T02:46:05.981Z,15.64
2018-05-11T02:47:05.969Z,15.6
2018-05-11T02:48:05.925Z,15.67
2018-05-11T02:49:05.688Z,15.6
2018-05-11T02:50:05.657Z,15.64
2018-05-11T02:51:05.944Z,15.62
2018-05-11T02:52:05.934Z,15.67
2018-05-11T02:53:05.939Z,15.5
2018-05-11T02:54:05.653Z,15.54
2018-05-11T02:55:05.402Z,15.51
2018-05-11T02:56:05.632Z,15.53
2018-05-11T02:57:05.887Z,15.51
2018-05-11T02:58:05.623Z,15.54
2018-05-11T02:59:05.668Z,15.54
2018-05-11T03:00:05.647Z,15.44
2018-05-11T03:01:05.861Z,15.46
2018-05-11T03:02:05.606Z,15.41
2018-05-11T03:03:05.904Z,15.39
2018-05-11T03:04:05.847Z,15.39
2018-05-11T03:05:05.880Z,15.44
2018-05-11T03:06:05.831Z,15.46
2018-05-11T03:07:05.862Z,15.39
2018-05-11T03:08:05.859Z,15.46
2018-05-11T03:09:05.851Z,15.36
2018-05-11T03:10:05.570Z,15.46
2018-05-11T03:11:05.938Z,15.43
2018-05-11T03:12:05.545Z,15.47
2018-05-11T03:13:05.799Z,15.46
2018-05-11T03:14:05.546Z,15.34
2018-05-11T03:15:05.821Z,15.39
2018-05-11T03:16:05.811Z,15.44
2018-05-11T03:17:05.778Z,15.47
2018-05-11T03:18:05.781Z,15.47
2018-05-11T03:19:05.764Z,15.43
2018-05-11T03:20:05.801Z,15.41
2018-05-11T03:21:05.760Z,15.44
2018-05-11T03:22:05.783Z,15.41
2018-05-11T03:23:05.743Z,15.41
2018-05-11T03:24:05.516Z,15.38
2018-05-11T03:25:05.736Z,15.32
2018-05-11T03:26:05.754Z,15.36
2018-05-11T03:27:05.214Z,15.46
2018-05-11T03:28:05.493Z,15.34
2018-05-11T03:29:05.720Z,15.43
2018-05-11T03:30:05.719Z,15.36
2018-05-11T03:31:05.740Z,15.39
2018-05-11T03:32:05.473Z,15.44
2018-05-11T03:33:05.699Z,15.36
2018-05-11T03:34:05.697Z,15.49
2018-05-11T03:35:05.678Z,15.36
2018-05-11T03:36:05.462Z,15.36
2018-05-11T03:37:05.675Z,15.38
2018-05-11T03:38:05.439Z,15.41
2018-05-11T03:39:05.657Z,15.38
2018-05-11T03:40:05.171Z,15.44
2018-05-11T03:41:05.399Z,15.5
2018-05-11T03:42:05.661Z,15.43
2018-05-11T03:43:05.759Z,15.5
2018-05-11T03:44:05.632Z,15.46
2018-05-11T03:45:05.632Z,15.41
2018-05-11T03:46:05.642Z,15.38
2018-05-11T03:47:05.653Z,15.31
2018-05-11T03:48:05.648Z,15.31
2018-05-11T03:49:05.616Z,15.44
2018-05-11T03:50:05.363Z,15.39
2018-05-11T03:51:05.092Z,15.41
2018-05-11T03:52:05.624Z,15.38
2018-05-11T03:53:05.603Z,15.34
2018-05-11T03:54:05.600Z,15.36
2018-05-11T03:55:05.612Z,15.39
2018-05-11T03:56:05.315Z,15.36
2018-05-11T03:57:05.598Z,15.35
2018-05-11T03:58:05.608Z,15.36
2018-05-11T03:59:05.590Z,15.36
2018-05-11T04:00:05.660Z,15.29
2018-05-11T04:01:05.298Z,15.27
2018-05-11T04:02:05.298Z,15.28
2018-05-11T04:03:05.568Z,15.38
2018-05-11T04:04:05.565Z,15.19
2018-05-11T04:05:05.529Z,15.23
2018-05-11T04:06:05.537Z,15.25
2018-05-11T04:07:05.276Z,15.2
2018-05-11T04:08:05.288Z,15.21
2018-05-11T04:09:05.260Z,15.2
2018-05-11T04:10:05.272Z,15.19
2018-05-11T04:11:05.242Z,15.21
2018-05-11T04:12:05.264Z,15.2
2018-05-11T04:13:05.584Z,15.23
2018-05-11T04:14:05.288Z,15.19
2018-05-11T04:15:04.964Z,15.23
2018-05-11T04:16:05.243Z,15.13
2018-05-11T04:17:05.232Z,15.21
2018-05-11T04:18:04.963Z,15.13
2018-05-11T04:19:05.199Z,15.09
2018-05-11T04:20:05.220Z,15.11
2018-05-11T04:21:05.194Z,15.02
2018-05-11T04:22:05.450Z,15.06
2018-05-11T04:23:04.921Z,15.07
2018-05-11T04:24:05.197Z,15.07
2018-05-11T04:25:05.433Z,15.06
2018-05-11T04:26:05.452Z,15.14
2018-05-11T04:27:05.153Z,15.19
2018-05-11T04:28:05.442Z,15.16
2018-05-11T04:29:05.395Z,15.2
2018-05-11T04:30:04.899Z,15.16
2018-05-11T04:31:04.877Z,15.21
2018-05-11T04:32:05.418Z,15.16
2018-05-11T04:33:05.153Z,15.19
2018-05-11T04:34:05.388Z,15.14
2018-05-11T04:35:05.185Z,15.16
2018-05-11T04:36:05.358Z,15.17
2018-05-11T04:37:05.385Z,15.19
2018-05-11T04:38:05.370Z,15.21
2018-05-11T04:39:05.375Z,15.17
2018-05-11T04:40:05.084Z,15.13
2018-05-11T04:41:05.105Z,15.17
2018-05-11T04:42:05.329Z,15.17
2018-05-11T04:43:05.354Z,15.16
2018-05-11T04:44:05.315Z,15.21
2018-05-11T04:45:05.347Z,15.17
2018-05-11T04:46:05.329Z,15.21
2018-05-11T04:47:05.311Z,15.31
2018-05-11T04:48:05.332Z,15.27
2018-05-11T04:49:05.320Z,15.32
2018-05-11T04:50:05.311Z,15.27
2018-05-11T04:51:05.031Z,15.23
2018-05-11T04:52:05.277Z,15.32
2018-05-11T04:53:05.298Z,15.34
2018-05-11T04:54:05.282Z,15.36
2018-05-11T04:55:05.293Z,15.36
2018-05-11T04:56:04.999Z,15.34
2018-05-11T04:57:05.020Z,15.27
2018-05-11T04:58:05.244Z,15.34
2018-05-11T04:59:05.273Z,15.36
2018-05-11T05:00:04.725Z,15.31
2018-05-11T05:01:05.259Z,15.32
2018-05-11T05:02:05.239Z,15.34
2018-05-11T05:03:05.263Z,15.31
2018-05-11T05:04:05.209Z,15.31
2018-05-11T05:05:05.209Z,15.36
2018-05-11T05:06:04.965Z,15.41
2018-05-11T05:07:05.233Z,15.32
2018-05-11T05:08:04.708Z,15.34
2018-05-11T05:09:05.188Z,15.35
2018-05-11T05:10:04.941Z,15.32
2018-05-11T05:11:05.214Z,15.49
2018-05-11T05:12:04.920Z,15.38
2018-05-11T05:13:05.194Z,15.31
2018-05-11T05:14:05.166Z,15.39
2018-05-11T05:15:05.186Z,15.36
2018-05-11T05:16:04.897Z,15.47
2018-05-11T05:17:05.182Z,15.44
2018-05-11T05:18:05.151Z,15.38
2018-05-11T05:19:05.325Z,15.46
2018-05-11T05:20:05.132Z,15.44
2018-05-11T05:21:04.873Z,15.44
2018-05-11T05:22:04.875Z,15.35
2018-05-11T05:23:05.156Z,15.43
2018-05-11T05:24:05.139Z,15.46
2018-05-11T05:25:05.108Z,15.35
2018-05-11T05:26:05.107Z,15.36
2018-05-11T05:27:05.091Z,15.35
2018-05-11T05:28:04.603Z,15.44
2018-05-11T05:29:05.089Z,15.46
2018-05-11T05:30:04.851Z,15.46
2018-05-11T05:31:05.073Z,15.41
2018-05-11T05:32:04.842Z,15.47
2018-05-11T05:33:05.222Z,15.46
2018-05-11T05:34:05.078Z,15.49
2018-05-11T05:35:04.796Z,15.49
2018-05-11T05:36:04.823Z,15.54
2018-05-11T05:37:05.078Z,15.57
2018-05-11T05:38:05.049Z,15.57
2018-05-11T05:39:05.148Z,15.56
2018-05-11T05:40:04.802Z,15.57
2018-05-11T05:41:05.024Z,15.49
2018-05-11T05:42:05.043Z,15.47
2018-05-11T05:43:05.007Z,15.51
2018-05-11T05:44:04.779Z,15.59
2018-05-11T05:45:05.004Z,15.64
2018-05-11T05:46:05.032Z,15.62
2018-05-11T05:47:05.016Z,15.62
2018-05-11T05:48:04.505Z,15.69
2018-05-11T05:49:04.977Z,15.62
2018-05-11T05:50:05.001Z,15.6
2018-05-11T05:51:05.010Z,15.68
2018-05-11T05:52:04.843Z,15.65
2018-05-11T05:53:04.989Z,15.57
2018-05-11T05:54:05.065Z,15.62
2018-05-11T05:55:05.040Z,15.64
2018-05-11T05:56:04.441Z,15.65
2018-05-11T05:57:04.965Z,15.68
2018-05-11T05:58:04.954Z,15.71
2018-05-11T05:59:04.960Z,15.69
2018-05-11T06:00:05.219Z,15.82
2018-05-11T06:01:04.957Z,15.9
2018-05-11T06:02:04.938Z,16.01
2018-05-11T06:03:04.923Z,16.01
2018-05-11T06:04:04.947Z,16.01
2018-05-11T06:05:04.982Z,16.08
2018-05-11T06:06:04.920Z,16.09
2018-05-11T06:07:04.888Z,16.08
2018-05-11T06:08:04.917Z,16.14
2018-05-11T06:09:04.665Z,16.15
2018-05-11T06:10:04.633Z,16.21
2018-05-11T06:11:04.621Z,16.2
2018-05-11T06:12:04.612Z,16.23
2018-05-11T06:13:04.890Z,16.25
2018-05-11T06:14:04.623Z,16.3
2018-05-11T06:15:04.885Z,16.31
2018-05-11T06:16:04.595Z,16.23
2018-05-11T06:17:04.869Z,16.28
2018-05-11T06:18:04.840Z,16.3
2018-05-11T06:19:04.866Z,16.25
2018-05-11T06:20:04.592Z,16.12
2018-05-11T06:21:04.601Z,16.08
2018-05-11T06:22:05.109Z,16.15
2018-05-11T06:23:04.856Z,16.12
2018-05-11T06:24:04.568Z,16.2
2018-05-11T06:25:04.812Z,16.07
2018-05-11T06:26:04.826Z,16.04
2018-05-11T06:27:04.831Z,15.97
2018-05-11T06:28:04.537Z,16.11
2018-05-11T06:29:04.818Z,15.93
2018-05-11T06:30:04.805Z,16.08
2018-05-11T06:31:04.812Z,16.12
2018-05-11T06:32:04.523Z,16.24
2018-05-11T06:33:04.541Z,16.38
2018-05-11T06:34:04.768Z,16.33
2018-05-11T06:35:04.534Z,16.43
2018-05-11T06:36:04.753Z,16.58
2018-05-11T06:37:04.788Z,16.7
2018-05-11T06:38:04.761Z,16.68
2018-05-11T06:39:04.516Z,16.78
2018-05-11T06:40:04.736Z,16.78
2018-05-11T06:41:04.745Z,16.82
2018-05-11T06:42:04.741Z,16.81
2018-05-11T06:43:04.504Z,16.82
2018-05-11T06:44:04.758Z,16.78
2018-05-11T06:45:04.466Z,16.79
2018-05-11T06:46:04.306Z,16.75
2018-05-11T06:47:04.710Z,16.67
2018-05-11T06:48:04.736Z,16.78
2018-05-11T06:49:04.706Z,16.7
2018-05-11T06:50:04.469Z,16.73
2018-05-11T06:51:04.691Z,16.76
2018-05-11T06:52:04.720Z,16.73
2018-05-11T06:53:04.685Z,16.73
2018-05-11T06:54:04.178Z,16.76
2018-05-11T06:55:04.451Z,16.79
2018-05-11T06:56:04.677Z,16.66
2018-05-11T06:57:04.420Z,16.7
2018-05-11T06:58:04.423Z,16.71
2018-05-11T06:59:04.692Z,16.76
2018-05-11T07:00:04.709Z,16.7
2018-05-11T07:01:04.651Z,16.75
2018-05-11T07:02:04.401Z,16.73
2018-05-11T07:03:04.636Z,16.73
2018-05-11T07:04:04.667Z,16.76
2018-05-11T07:05:04.632Z,16.73
2018-05-11T07:06:04.130Z,16.83
2018-05-11T07:07:04.396Z,16.82
2018-05-11T07:08:04.882Z,16.86
2018-05-11T07:09:04.654Z,16.88
2018-05-11T07:10:04.642Z,16.83
2018-05-11T07:11:04.380Z,16.73
2018-05-11T07:12:04.624Z,16.82
2018-05-11T07:13:04.349Z,16.82
2018-05-11T07:14:04.361Z,16.81
2018-05-11T07:15:04.362Z,16.79
2018-05-11T07:16:04.104Z,16.86
2018-05-11T07:17:04.078Z,16.86
2018-05-11T07:18:04.652Z,16.88
2018-05-11T07:19:04.614Z,16.89
2018-05-11T07:20:04.318Z,16.94
2018-05-11T07:21:04.333Z,17.01
2018-05-11T07:22:04.565Z,17
2018-05-11T07:23:04.599Z,17.04
2018-05-11T07:24:04.307Z,17.06
2018-05-11T07:25:04.586Z,17.06
2018-05-11T07:26:04.311Z,17.22
2018-05-11T07:27:04.313Z,17.3
2018-05-11T07:28:04.559Z,17.41
2018-05-11T07:29:04.327Z,17.51
2018-05-11T07:30:04.321Z,17.54
2018-05-11T07:31:04.576Z,17.63
2018-05-11T07:32:04.562Z,17.77
2018-05-11T07:33:04.524Z,17.77
2018-05-11T07:34:04.549Z,17.9
2018-05-11T07:35:04.781Z,17.82
2018-05-11T07:36:04.288Z,17.92
2018-05-11T07:37:04.508Z,17.97
2018-05-11T07:38:04.273Z,18.11
2018-05-11T07:39:04.511Z,18.1
2018-05-11T07:40:04.529Z,18.08
2018-05-11T07:41:04.240Z,18.14
2018-05-11T07:42:04.244Z,18.07
2018-05-11T07:43:04.312Z,18.11
2018-05-11T07:44:04.543Z,18.14
2018-05-11T07:45:04.230Z,18
2018-05-11T07:46:04.487Z,18.02
2018-05-11T07:47:04.243Z,17.9
2018-05-11T07:48:04.249Z,17.93
2018-05-11T07:49:04.212Z,18.07
2018-05-11T07:50:04.492Z,18.08
2018-05-11T07:51:03.949Z,18.14
2018-05-11T07:52:04.227Z,17.99
2018-05-11T07:53:03.945Z,18.14
2018-05-11T07:54:04.236Z,18.03
2018-05-11T07:55:04.189Z,18.1
2018-05-11T07:56:04.213Z,18.11
2018-05-11T07:57:04.442Z,18.17
2018-05-11T07:58:04.200Z,18.17
2018-05-11T07:59:04.427Z,18.2
2018-05-11T08:00:04.209Z,18.2
2018-05-11T08:01:04.469Z,18.17
2018-05-11T08:02:04.182Z,18.05
2018-05-11T08:03:04.416Z,18.1
2018-05-11T08:04:04.813Z,18.14
2018-05-11T08:05:04.180Z,18.11
2018-05-11T08:06:04.166Z,18.1
2018-05-11T08:07:04.179Z,18.11
2018-05-11T08:08:04.145Z,18.1
2018-05-11T08:09:04.167Z,18.1
2018-05-11T08:10:04.160Z,18.12
2018-05-11T08:11:03.891Z,18.11
2018-05-11T08:12:04.167Z,18.11
2018-05-11T08:13:04.138Z,18
2018-05-11T08:14:04.406Z,18.14
2018-05-11T08:15:04.419Z,18.11
2018-05-11T08:16:04.163Z,18.25
2018-05-11T08:17:04.659Z,18.17
2018-05-11T08:18:04.389Z,18.23
2018-05-11T08:19:04.377Z,18.26
2018-05-11T08:20:04.106Z,18.15
2018-05-11T08:21:04.394Z,18.18
2018-05-11T08:22:03.925Z,18.23
2018-05-11T08:23:04.144Z,18.18
2018-05-11T08:24:04.093Z,18.15
2018-05-11T08:25:04.404Z,18.21
2018-05-11T08:26:04.345Z,18.08
2018-05-11T08:27:04.212Z,18.17
2018-05-11T08:28:04.084Z,18.18
2018-05-11T08:29:04.364Z,18.26
2018-05-11T08:30:04.094Z,18.25
2018-05-11T08:31:03.841Z,18.2
2018-05-11T08:32:04.070Z,18.27
2018-05-11T08:33:04.067Z,18.29
2018-05-11T08:34:04.078Z,18.29
2018-05-11T08:35:04.102Z,18.42
2018-05-11T08:36:04.059Z,18.37
2018-05-11T08:37:04.103Z,18.33
2018-05-11T08:38:04.082Z,18.32
2018-05-11T08:39:04.332Z,18.37
2018-05-11T08:40:04.042Z,18.39
2018-05-11T08:41:04.070Z,18.33
2018-05-11T08:42:04.292Z,18.37
2018-05-11T08:43:04.324Z,18.32
2018-05-11T08:44:04.029Z,18.41
2018-05-11T08:45:04.066Z,18.36
2018-05-11T08:46:04.038Z,18.42
2018-05-11T08:47:04.333Z,18.45
2018-05-11T08:48:04.043Z,18.44
2018-05-11T08:49:04.300Z,18.52
2018-05-11T08:50:04.293Z,18.66
2018-05-11T08:51:04.274Z,18.82
2018-05-11T08:52:04.280Z,18.92
2018-05-11T08:53:04.028Z,19.02
2018-05-11T08:54:04.014Z,19.13
2018-05-11T08:55:04.305Z,19.21
2018-05-11T08:56:04.001Z,19.29
2018-05-11T08:57:04.340Z,19.37
2018-05-11T08:58:03.988Z,19.46
2018-05-11T08:59:04.028Z,19.59
2018-05-11T09:00:04.242Z,19.68
2018-05-11T09:01:04.010Z,19.73
2018-05-11T09:02:03.992Z,19.83
2018-05-11T09:03:04.120Z,19.96
2018-05-11T09:04:04.262Z,20.03
2018-05-11T09:05:04.250Z,20.06
2018-05-11T09:06:04.280Z,20.21
2018-05-11T09:07:03.967Z,20.24
2018-05-11T09:08:04.220Z,20.28
2018-05-11T09:09:04.246Z,20.26
2018-05-11T09:10:04.031Z,20.26
2018-05-11T09:11:03.992Z,20.2
2018-05-11T09:12:03.964Z,20.17
2018-05-11T09:13:03.974Z,20.06
2018-05-11T09:14:03.949Z,20.08
2018-05-11T09:15:04.245Z,19.98
2018-05-11T09:16:04.203Z,19.92
2018-05-11T09:17:04.234Z,19.78
2018-05-11T09:18:04.213Z,19.83
2018-05-11T09:19:03.971Z,19.8
2018-05-11T09:20:03.972Z,19.92
2018-05-11T09:21:03.955Z,19.86
2018-05-11T09:22:04.046Z,19.91
2018-05-11T09:23:03.961Z,19.74
2018-05-11T09:24:03.959Z,19.74
2018-05-11T09:25:03.961Z,19.69
2018-05-11T09:26:03.984Z,19.77
2018-05-11T09:27:04.220Z,19.77
2018-05-11T09:28:03.928Z,19.76
2018-05-11T09:29:03.942Z,19.68
2018-05-11T09:30:04.198Z,19.65
2018-05-11T09:31:03.964Z,19.73
2018-05-11T09:32:04.172Z,19.63
2018-05-11T09:33:04.219Z,19.65
2018-05-11T09:34:04.181Z,19.68
2018-05-11T09:35:04.204Z,19.74
2018-05-11T09:36:04.161Z,19.71
2018-05-11T09:37:04.160Z,19.73
2018-05-11T09:38:03.916Z,19.74
2018-05-11T09:39:04.190Z,19.76
2018-05-11T09:40:03.930Z,19.61
2018-05-11T09:41:03.900Z,19.61
2018-05-11T09:42:03.909Z,19.65
2018-05-11T09:43:03.895Z,19.62
2018-05-11T09:44:03.917Z,19.76
2018-05-11T09:45:03.892Z,19.73
2018-05-11T09:46:03.916Z,19.86
2018-05-11T09:47:03.896Z,19.94
2018-05-11T09:48:03.910Z,20.06
2018-05-11T09:49:04.228Z,20.05
2018-05-11T09:50:04.160Z,20.08
2018-05-11T09:51:03.873Z,20.18
2018-05-11T09:52:03.897Z,20.11
2018-05-11T09:53:04.126Z,20.13
2018-05-11T09:54:03.880Z,20.28
2018-05-11T09:55:03.967Z,20.39
2018-05-11T09:56:03.895Z,20.51
2018-05-11T09:57:03.862Z,20.64
2018-05-11T09:58:03.872Z,20.77
2018-05-11T09:59:03.864Z,20.99
2018-05-11T10:00:03.893Z,21.07
2018-05-11T10:01:03.868Z,21.19
2018-05-11T10:02:03.890Z,21.38
2018-05-11T10:03:03.849Z,21.44
2018-05-11T10:04:03.881Z,21.56
2018-05-11T10:05:03.854Z,21.5
2018-05-11T10:06:03.856Z,21.49
2018-05-11T10:07:04.107Z,21.44
2018-05-11T10:08:04.126Z,21.4
2018-05-11T10:09:04.128Z,21.25
2018-05-11T10:10:04.125Z,21.28
2018-05-11T10:11:04.090Z,21.31
2018-05-11T10:12:04.094Z,21.32
2018-05-11T10:13:03.860Z,21.4
2018-05-11T10:14:03.872Z,21.54
2018-05-11T10:15:04.132Z,21.75
2018-05-11T10:16:04.091Z,21.79
2018-05-11T10:17:04.333Z,21.79
2018-05-11T10:18:04.128Z,21.9
2018-05-11T10:19:04.097Z,21.96
2018-05-11T10:20:03.861Z,22.02
2018-05-11T10:21:04.086Z,22.09
2018-05-11T10:22:04.166Z,22.17
2018-05-11T10:23:03.825Z,22.24
2018-05-11T10:24:03.857Z,22.37
2018-05-11T10:25:03.857Z,22.45
2018-05-11T10:26:04.101Z,22.52
2018-05-11T10:27:04.104Z,22.43
2018-05-11T10:28:03.834Z,22.36
2018-05-11T10:29:04.007Z,22.39
2018-05-11T10:30:03.853Z,22.42
2018-05-11T10:31:04.086Z,22.4
2018-05-11T10:32:04.121Z,22.39
2018-05-11T10:33:04.095Z,22.36
2018-05-11T10:34:04.112Z,22.49
2018-05-11T10:35:04.090Z,22.47
2018-05-11T10:36:03.856Z,22.42
2018-05-11T10:37:04.078Z,22.4
2018-05-11T10:38:03.838Z,22.39
2018-05-11T10:39:04.077Z,22.3
2018-05-11T10:40:03.870Z,22.28
2018-05-11T10:41:03.856Z,22.17
2018-05-11T10:42:04.113Z,22.24
2018-05-11T10:43:04.096Z,22.09
2018-05-11T10:44:03.605Z,22.03
2018-05-11T10:45:03.825Z,22.12
2018-05-11T10:46:04.169Z,22.2
2018-05-11T10:47:03.824Z,22.15
2018-05-11T10:48:03.858Z,22.21
2018-05-11T10:49:03.822Z,22.24
2018-05-11T10:50:04.117Z,22.17
2018-05-11T10:51:04.090Z,22.18
2018-05-11T10:52:03.845Z,22.2
2018-05-11T10:53:03.841Z,22.15
2018-05-11T10:54:03.832Z,22.2
2018-05-11T10:55:03.864Z,22.18
2018-05-11T10:56:03.843Z,22.27
2018-05-11T10:57:03.581Z,22.28
2018-05-11T10:58:03.845Z,22.45
2018-05-11T10:59:04.068Z,22.37
2018-05-11T11:00:03.559Z,22.31
2018-05-11T11:01:03.841Z,22.33
2018-05-11T11:02:04.097Z,22.22
2018-05-11T11:03:03.847Z,22.15
2018-05-11T11:04:03.830Z,22.05
2018-05-11T11:05:04.102Z,22
2018-05-11T11:06:04.067Z,21.94
2018-05-11T11:07:03.837Z,21.88
2018-05-11T11:08:03.915Z,21.86
2018-05-11T11:09:04.092Z,21.74
2018-05-11T11:10:03.823Z,21.68
2018-05-11T11:11:03.555Z,21.46
2018-05-11T11:12:04.099Z,21.38
2018-05-11T11:13:03.831Z,21.35
2018-05-11T11:14:04.104Z,21.37
2018-05-11T11:15:03.806Z,21.34
2018-05-11T11:16:04.060Z,21.35
2018-05-11T11:17:03.845Z,21.28
2018-05-11T11:18:04.077Z,21.17
2018-05-11T11:19:03.828Z,21.21
2018-05-11T11:20:04.271Z,21.24
2018-05-11T11:21:03.826Z,21.19
2018-05-11T11:22:04.072Z,21.19
2018-05-11T11:23:03.828Z,21.13
2018-05-11T11:24:03.800Z,21.16
2018-05-11T11:25:03.829Z,21.06
2018-05-11T11:26:04.330Z,21.1
2018-05-11T11:27:03.821Z,21.1
2018-05-11T11:28:03.790Z,20.98
2018-05-11T11:29:04.047Z,21.07
2018-05-11T11:30:03.802Z,20.99
2018-05-11T11:31:03.817Z,21.03
2018-05-11T11:32:03.812Z,20.99
2018-05-11T11:33:04.050Z,20.99
2018-05-11T11:34:04.061Z,20.98
2018-05-11T11:35:04.076Z,21.01
2018-05-11T11:36:04.041Z,20.99
2018-05-11T11:37:04.087Z,21.01
2018-05-11T11:38:04.041Z,21.1
2018-05-11T11:39:04.062Z,21.1
2018-05-11T11:40:03.773Z,21.1
2018-05-11T11:41:04.212Z,21.1
2018-05-11T11:42:04.220Z,20.99
2018-05-11T11:43:03.810Z,20.99
2018-05-11T11:44:03.768Z,21.01
2018-05-11T11:45:04.051Z,21.06
2018-05-11T11:46:04.044Z,21.12
2018-05-11T11:47:03.790Z,21.14
2018-05-11T11:48:04.071Z,21.12
2018-05-11T11:49:03.763Z,21.21
2018-05-11T11:50:03.772Z,21.16
2018-05-11T11:51:03.779Z,21.13
2018-05-11T11:52:04.058Z,21.24
2018-05-11T11:53:04.027Z,21.17
2018-05-11T11:54:04.042Z,21.27
2018-05-11T11:55:04.024Z,21.17
2018-05-11T11:56:04.045Z,21.22
2018-05-11T11:57:04.002Z,21.21
2018-05-11T11:58:04.036Z,21.13
2018-05-11T11:59:03.743Z,21.14
2018-05-11T12:00:04.038Z,21.13
2018-05-11T12:01:03.757Z,21.09
2018-05-11T12:02:04.282Z,21.21
2018-05-11T12:03:04.045Z,21.09
2018-05-11T12:04:03.772Z,21.13
2018-05-11T12:05:03.756Z,21.09
2018-05-11T12:06:04.013Z,21.07
2018-05-11T12:07:04.009Z,21.12
2018-05-11T12:08:04.052Z,21.14
2018-05-11T12:09:04.297Z,21.21
2018-05-11T12:10:04.024Z,21.27
2018-05-11T12:11:03.993Z,21.27
2018-05-11T12:12:04.053Z,21.21
2018-05-11T12:13:04.005Z,21.14
2018-05-11T12:14:04.009Z,21.16
2018-05-11T12:15:03.992Z,21.17
2018-05-11T12:16:04.008Z,21.16
2018-05-11T12:17:03.753Z,21.17
2018-05-11T12:18:03.993Z,21.12
2018-05-11T12:19:03.984Z,20.97
2018-05-11T12:20:04.041Z,20.92
2018-05-11T12:21:03.738Z,20.98
2018-05-11T12:22:03.998Z,20.98
2018-05-11T12:23:04.018Z,20.94
2018-05-11T12:24:03.971Z,20.89
2018-05-11T12:25:03.990Z,20.77
2018-05-11T12:26:03.984Z,20.77
2018-05-11T12:27:03.964Z,20.77
2018-05-11T12:28:03.998Z,20.79
2018-05-11T12:29:03.705Z,20.79
2018-05-11T12:30:03.714Z,20.89
2018-05-11T12:31:03.951Z,20.92
2018-05-11T12:32:03.990Z,20.98
2018-05-11T12:33:03.980Z,20.91
2018-05-11T12:34:03.969Z,20.98
2018-05-11T12:35:03.736Z,20.97
2018-05-11T12:36:03.691Z,21.04
2018-05-11T12:37:03.719Z,20.99
2018-05-11T12:38:03.960Z,21.03
2018-05-11T12:39:03.970Z,21.06
2018-05-11T12:40:03.950Z,21.16
2018-05-11T12:41:04.068Z,21.19
2018-05-11T12:42:03.940Z,21.17
2018-05-11T12:43:03.966Z,21.31
2018-05-11T12:44:03.930Z,21.42
2018-05-11T12:45:03.960Z,21.34
2018-05-11T12:46:03.946Z,21.43
2018-05-11T12:47:03.710Z,21.53
2018-05-11T12:48:03.925Z,21.62
2018-05-11T12:49:03.928Z,21.64
2018-05-11T12:50:03.682Z,21.79
2018-05-11T12:51:03.699Z,21.84
2018-05-11T12:52:03.664Z,21.96
2018-05-11T12:53:03.881Z,22.03
2018-05-11T12:54:03.685Z,22.05
2018-05-11T12:55:03.704Z,22.07